sensor_id;sensor_type;location;lat;lon;timestamp;pressure;altitude;pressure_sealevel;temperature;humidity
35577;BME280;21680;52.400;16.920;2023-02-19T00:01:43;100444.70;;;2.20;100.00
35577;BME280;21680;52.400;16.920;2023-02-19T00:04:18;100442.44;;;2.17;100.00
35577;BME280;21680;52.400;16.920;2023-02-19T00:06:45;100445.80;;;2.16;100.00
35577;BME280;21680;52.400;16.920;2023-02-19T00:09:12;100440.70;;;2.16;100.00
35577;BME280;21680;52.400;16.920;2023-02-19T00:11:38;100441.02;;;2.17;100.00
35577;BME280;21680;52.400;16.920;2023-02-19T00:14:05;100439.10;;;2.17;100.00
35577;BME280;21680;52.400;16.920;2023-02-19T00:16:33;100436.27;;;2.16;100.00
35577;BME280;21680;52.400;16.920;2023-02-19T00:19:00;100434.87;;;2.16;100.00
35577;BME280;21680;52.400;16.920;2023-02-19T00:21:26;100437.00;;;2.15;100.00
35577;BME280;21680;52.400;16.920;2023-02-19T00:23:54;100439.31;;;2.14;100.00
35577;BME280;21680;52.400;16.920;2023-02-19T00:26:20;100441.63;;;2.12;100.00
35577;BME280;21680;52.400;16.920;2023-02-19T00:28:47;100438.48;;;2.10;100.00
35577;BME280;21680;52.400;16.920;2023-02-19T00:31:27;100442.72;;;2.09;100.00
35577;BME280;21680;52.400;16.920;2023-02-19T00:33:55;100444.65;;;2.09;100.00
35577;BME280;21680;52.400;16.920;2023-02-19T00:36:22;100440.98;;;2.07;100.00
35577;BME280;21680;52.400;16.920;2023-02-19T00:38:48;100441.16;;;2.07;100.00
35577;BME280;21680;52.400;16.920;2023-02-19T00:41:15;100439.73;;;2.07;100.00
35577;BME280;21680;52.400;16.920;2023-02-19T00:43:54;100443.45;;;2.06;100.00
35577;BME280;21680;52.400;16.920;2023-02-19T00:46:23;100441.16;;;2.06;100.00
35577;BME280;21680;52.400;16.920;2023-02-19T00:48:49;100442.23;;;2.05;100.00
35577;BME280;21680;52.400;16.920;2023-02-19T00:51:16;100440.48;;;2.06;100.00
35577;BME280;21680;52.400;16.920;2023-02-19T00:53:42;100437.30;;;2.05;100.00
35577;BME280;21680;52.400;16.920;2023-02-19T00:56:08;100436.59;;;2.06;100.00
35577;BME280;21680;52.400;16.920;2023-02-19T00:58:34;100437.11;;;2.06;100.00
35577;BME280;21680;52.400;16.920;2023-02-19T01:00:59;100440.11;;;2.06;100.00
35577;BME280;21680;52.400;16.920;2023-02-19T01:03:25;100439.77;;;2.04;100.00
35577;BME280;21680;52.400;16.920;2023-02-19T01:05:51;100443.48;;;2.04;100.00
35577;BME280;21680;52.400;16.920;2023-02-19T01:08:18;100441.37;;;2.05;100.00
35577;BME280;21680;52.400;16.920;2023-02-19T01:10:43;100438.01;;;2.05;100.00
35577;BME280;21680;52.400;16.920;2023-02-19T01:13:09;100434.30;;;2.06;100.00
35577;BME280;21680;52.400;16.920;2023-02-19T01:15:35;100431.98;;;2.07;100.00
35577;BME280;21680;52.400;16.920;2023-02-19T01:18:00;100418.77;;;2.08;100.00
35577;BME280;21680;52.400;16.920;2023-02-19T01:20:26;100415.94;;;2.09;100.00
35577;BME280;21680;52.400;16.920;2023-02-19T01:22:51;100413.11;;;2.09;100.00
35577;BME280;21680;52.400;16.920;2023-02-19T01:25:17;100412.94;;;2.09;100.00
35577;BME280;21680;52.400;16.920;2023-02-19T01:27:42;100415.56;;;2.10;100.00
35577;BME280;21680;52.400;16.920;2023-02-19T01:30:08;100409.55;;;2.12;100.00
35577;BME280;21680;52.400;16.920;2023-02-19T01:32:34;100408.30;;;2.13;100.00
35577;BME280;21680;52.400;16.920;2023-02-19T01:34:59;100406.34;;;2.14;100.00
35577;BME280;21680;52.400;16.920;2023-02-19T01:37:25;100397.52;;;2.15;100.00
35577;BME280;21680;52.400;16.920;2023-02-19T01:39:50;100393.61;;;2.18;100.00
35577;BME280;21680;52.400;16.920;2023-02-19T01:42:16;100405.92;;;2.20;100.00
35577;BME280;21680;52.400;16.920;2023-02-19T01:47:07;100407.68;;;2.20;100.00
35577;BME280;21680;52.400;16.920;2023-02-19T01:49:40;100403.30;;;2.18;100.00
35577;BME280;21680;52.400;16.920;2023-02-19T01:54:42;100405.27;;;2.16;100.00
35577;BME280;21680;52.400;16.920;2023-02-19T01:57:12;100400.67;;;2.17;100.00
35577;BME280;21680;52.400;16.920;2023-02-19T01:59:39;100393.29;;;2.15;100.00
35577;BME280;21680;52.400;16.920;2023-02-19T02:02:05;100386.98;;;2.13;100.00
35577;BME280;21680;52.400;16.920;2023-02-19T02:04:31;100383.45;;;2.13;100.00
35577;BME280;21680;52.400;16.920;2023-02-19T02:07:00;100379.91;;;2.14;100.00
35577;BME280;21680;52.400;16.920;2023-02-19T02:09:28;100373.09;;;2.10;100.00
35577;BME280;21680;52.400;16.920;2023-02-19T02:12:14;100369.92;;;2.10;100.00
35577;BME280;21680;52.400;16.920;2023-02-19T02:14:44;100367.81;;;2.09;100.00
35577;BME280;21680;52.400;16.920;2023-02-19T02:17:30;100361.13;;;2.08;100.00
35577;BME280;21680;52.400;16.920;2023-02-19T02:20:26;100361.67;;;2.07;100.00
35577;BME280;21680;52.400;16.920;2023-02-19T02:23:21;100350.98;;;2.03;100.00
35577;BME280;21680;52.400;16.920;2023-02-19T02:28:48;100353.27;;;2.03;100.00
35577;BME280;21680;52.400;16.920;2023-02-19T02:31:40;100349.23;;;2.02;100.00
35577;BME280;21680;52.400;16.920;2023-02-19T02:34:34;100347.13;;;2.01;100.00
35577;BME280;21680;52.400;16.920;2023-02-19T02:37:03;100343.95;;;2.02;100.00
35577;BME280;21680;52.400;16.920;2023-02-19T02:39:30;100339.88;;;2.02;100.00
35577;BME280;21680;52.400;16.920;2023-02-19T02:41:58;100339.52;;;2.03;100.00
35577;BME280;21680;52.400;16.920;2023-02-19T02:44:43;100338.66;;;2.02;100.00
35577;BME280;21680;52.400;16.920;2023-02-19T02:47:35;100335.81;;;2.03;100.00
35577;BME280;21680;52.400;16.920;2023-02-19T02:50:22;100331.42;;;2.02;100.00
35577;BME280;21680;52.400;16.920;2023-02-19T02:52:53;100332.81;;;2.04;100.00
35577;BME280;21680;52.400;16.920;2023-02-19T02:55:42;100327.71;;;2.04;100.00
35577;BME280;21680;52.400;16.920;2023-02-19T02:58:09;100323.65;;;2.04;100.00
35577;BME280;21680;52.400;16.920;2023-02-19T03:00:36;100322.95;;;2.04;100.00
35577;BME280;21680;52.400;16.920;2023-02-19T03:03:25;100319.75;;;2.06;100.00
35577;BME280;21680;52.400;16.920;2023-02-19T03:05:56;100317.98;;;2.06;100.00
35577;BME280;21680;52.400;16.920;2023-02-19T03:08:29;100314.42;;;2.08;100.00
35577;BME280;21680;52.400;16.920;2023-02-19T03:13:44;100315.96;;;2.12;100.00
35577;BME280;21680;52.400;16.920;2023-02-19T03:16:32;100314.54;;;2.12;100.00
35577;BME280;21680;52.400;16.920;2023-02-19T03:19:18;100312.26;;;2.11;100.00
35577;BME280;21680;52.400;16.920;2023-02-19T03:21:56;100312.06;;;2.13;100.00
35577;BME280;21680;52.400;16.920;2023-02-19T03:24:33;100304.67;;;2.12;100.00
35577;BME280;21680;52.400;16.920;2023-02-19T03:27:19;100302.71;;;2.14;100.00
35577;BME280;21680;52.400;16.920;2023-02-19T03:29:47;100294.60;;;2.14;100.00
35577;BME280;21680;52.400;16.920;2023-02-19T03:32:19;100286.81;;;2.16;100.00
35577;BME280;21680;52.400;16.920;2023-02-19T03:34:53;100281.66;;;2.18;100.00
35577;BME280;21680;52.400;16.920;2023-02-19T03:37:31;100283.23;;;2.21;100.00
35577;BME280;21680;52.400;16.920;2023-02-19T03:40:00;100279.50;;;2.21;100.00
35577;BME280;21680;52.400;16.920;2023-02-19T03:45:01;100283.20;;;2.22;100.00
35577;BME280;21680;52.400;16.920;2023-02-19T03:47:39;100280.02;;;2.22;100.00
35577;BME280;21680;52.400;16.920;2023-02-19T04:00:51;100277.33;;;2.26;100.00
35577;BME280;21680;52.400;16.920;2023-02-19T04:03:29;100270.80;;;2.25;100.00
35577;BME280;21680;52.400;16.920;2023-02-19T04:06:01;100268.87;;;2.25;100.00
35577;BME280;21680;52.400;16.920;2023-02-19T04:08:28;100272.39;;;2.25;100.00
35577;BME280;21680;52.400;16.920;2023-02-19T04:10:57;100280.49;;;2.25;100.00
35577;BME280;21680;52.400;16.920;2023-02-19T04:13:37;100283.34;;;2.24;100.00
35577;BME280;21680;52.400;16.920;2023-02-19T04:16:10;100283.36;;;2.23;100.00
35577;BME280;21680;52.400;16.920;2023-02-19T04:18:40;100288.83;;;2.23;100.00
35577;BME280;21680;52.400;16.920;2023-02-19T04:21:08;100292.17;;;2.23;100.00
35577;BME280;21680;52.400;16.920;2023-02-19T04:23:37;100292.88;;;2.23;100.00
35577;BME280;21680;52.400;16.920;2023-02-19T04:26:05;100305.05;;;2.22;100.00
35577;BME280;21680;52.400;16.920;2023-02-19T04:28:33;100305.09;;;2.19;100.00
35577;BME280;21680;52.400;16.920;2023-02-19T04:30:59;100311.80;;;2.19;100.00
35577;BME280;21680;52.400;16.920;2023-02-19T04:33:25;100315.88;;;2.18;100.00
35577;BME280;21680;52.400;16.920;2023-02-19T04:35:50;100318.88;;;2.17;100.00
35577;BME280;21680;52.400;16.920;2023-02-19T04:38:15;100321.71;;;2.16;100.00
35577;BME280;21680;52.400;16.920;2023-02-19T04:40:41;100322.59;;;2.16;100.00
35577;BME280;21680;52.400;16.920;2023-02-19T04:43:06;100313.98;;;2.15;100.00
35577;BME280;21680;52.400;16.920;2023-02-19T04:45:32;100302.17;;;2.14;100.00
35577;BME280;21680;52.400;16.920;2023-02-19T04:47:57;100306.77;;;2.14;100.00
35577;BME280;21680;52.400;16.920;2023-02-19T04:50:23;100310.65;;;2.13;100.00
35577;BME280;21680;52.400;16.920;2023-02-19T04:52:48;100315.75;;;2.14;100.00
35577;BME280;21680;52.400;16.920;2023-02-19T04:55:14;100321.06;;;2.12;100.00
35577;BME280;21680;52.400;16.920;2023-02-19T04:57:39;100324.39;;;2.14;100.00
35577;BME280;21680;52.400;16.920;2023-02-19T05:00:05;100326.17;;;2.13;100.00
35577;BME280;21680;52.400;16.920;2023-02-19T05:02:32;100328.98;;;2.13;100.00
35577;BME280;21680;52.400;16.920;2023-02-19T05:04:57;100329.89;;;2.11;100.00
35577;BME280;21680;52.400;16.920;2023-02-19T05:07:22;100329.23;;;2.08;100.00
35577;BME280;21680;52.400;16.920;2023-02-19T05:09:47;100330.66;;;2.07;100.00
35577;BME280;21680;52.400;16.920;2023-02-19T05:12:13;100327.33;;;2.05;100.00
35577;BME280;21680;52.400;16.920;2023-02-19T05:14:38;100325.60;;;2.03;100.00
35577;BME280;21680;52.400;16.920;2023-02-19T05:17:03;100322.81;;;2.01;100.00
35577;BME280;21680;52.400;16.920;2023-02-19T05:19:28;100320.37;;;1.99;100.00
35577;BME280;21680;52.400;16.920;2023-02-19T05:21:54;100320.36;;;2.00;100.00
35577;BME280;21680;52.400;16.920;2023-02-19T05:24:19;100321.96;;;1.99;100.00
35577;BME280;21680;52.400;16.920;2023-02-19T05:26:44;100323.20;;;1.98;100.00
35577;BME280;21680;52.400;16.920;2023-02-19T05:29:09;100320.59;;;1.96;100.00
35577;BME280;21680;52.400;16.920;2023-02-19T05:31:35;100322.55;;;1.94;100.00
35577;BME280;21680;52.400;16.920;2023-02-19T05:34:00;100324.85;;;1.93;100.00
35577;BME280;21680;52.400;16.920;2023-02-19T05:36:26;100325.75;;;1.92;100.00
35577;BME280;21680;52.400;16.920;2023-02-19T05:38:53;100325.23;;;1.91;100.00
35577;BME280;21680;52.400;16.920;2023-02-19T05:41:24;100329.63;;;1.92;100.00
35577;BME280;21680;52.400;16.920;2023-02-19T05:43:50;100327.55;;;1.88;100.00
35577;BME280;21680;52.400;16.920;2023-02-19T05:46:18;100326.89;;;1.85;100.00
35577;BME280;21680;52.400;16.920;2023-02-19T05:48:44;100325.66;;;1.85;100.00
35577;BME280;21680;52.400;16.920;2023-02-19T05:51:12;100326.05;;;1.83;100.00
35577;BME280;21680;52.400;16.920;2023-02-19T05:53:38;100331.70;;;1.81;100.00
35577;BME280;21680;52.400;16.920;2023-02-19T05:56:12;100332.23;;;1.81;100.00
35577;BME280;21680;52.400;16.920;2023-02-19T05:58:44;100338.96;;;1.79;100.00
35577;BME280;21680;52.400;16.920;2023-02-19T06:01:16;100340.92;;;1.77;100.00
35577;BME280;21680;52.400;16.920;2023-02-19T06:03:42;100336.89;;;1.75;100.00
35577;BME280;21680;52.400;16.920;2023-02-19T06:06:11;100334.77;;;1.75;100.00
35577;BME280;21680;52.400;16.920;2023-02-19T06:08:37;100337.44;;;1.74;100.00
35577;BME280;21680;52.400;16.920;2023-02-19T06:11:02;100332.31;;;1.75;100.00
35577;BME280;21680;52.400;16.920;2023-02-19T06:13:27;100333.54;;;1.76;100.00
35577;BME280;21680;52.400;16.920;2023-02-19T06:15:53;100329.31;;;1.76;100.00
35577;BME280;21680;52.400;16.920;2023-02-19T06:18:18;100331.23;;;1.77;100.00
35577;BME280;21680;52.400;16.920;2023-02-19T06:20:43;100329.81;;;1.78;100.00
35577;BME280;21680;52.400;16.920;2023-02-19T06:23:08;100334.23;;;1.78;100.00
35577;BME280;21680;52.400;16.920;2023-02-19T06:25:34;100336.33;;;1.78;100.00
35577;BME280;21680;52.400;16.920;2023-02-19T06:27:59;100343.56;;;1.77;100.00
35577;BME280;21680;52.400;16.920;2023-02-19T06:30:24;100348.12;;;1.78;100.00
35577;BME280;21680;52.400;16.920;2023-02-19T06:32:51;100348.66;;;1.78;100.00
35577;BME280;21680;52.400;16.920;2023-02-19T06:35:17;100352.70;;;1.79;100.00
35577;BME280;21680;52.400;16.920;2023-02-19T06:37:45;100358.33;;;1.79;100.00
35577;BME280;21680;52.400;16.920;2023-02-19T06:40:10;100362.58;;;1.78;100.00
35577;BME280;21680;52.400;16.920;2023-02-19T06:42:36;100361.33;;;1.79;100.00
35577;BME280;21680;52.400;16.920;2023-02-19T06:45:01;100360.97;;;1.80;100.00
35577;BME280;21680;52.400;16.920;2023-02-19T06:47:30;100371.16;;;1.81;100.00
35577;BME280;21680;52.400;16.920;2023-02-19T06:49:55;100373.11;;;1.81;100.00
35577;BME280;21680;52.400;16.920;2023-02-19T06:52:20;100378.55;;;1.82;100.00
35577;BME280;21680;52.400;16.920;2023-02-19T06:54:45;100377.48;;;1.82;100.00
35577;BME280;21680;52.400;16.920;2023-02-19T06:57:11;100383.64;;;1.84;100.00
35577;BME280;21680;52.400;16.920;2023-02-19T06:59:36;100381.17;;;1.84;100.00
35577;BME280;21680;52.400;16.920;2023-02-19T07:02:01;100385.39;;;1.85;100.00
35577;BME280;21680;52.400;16.920;2023-02-19T07:04:26;100380.25;;;1.87;100.00
35577;BME280;21680;52.400;16.920;2023-02-19T07:06:52;100381.81;;;1.90;100.00
35577;BME280;21680;52.400;16.920;2023-02-19T07:09:17;100380.20;;;1.91;100.00
35577;BME280;21680;52.400;16.920;2023-02-19T07:11:42;100382.51;;;1.90;100.00
35577;BME280;21680;52.400;16.920;2023-02-19T07:14:13;100377.03;;;1.91;100.00
35577;BME280;21680;52.400;16.920;2023-02-19T07:16:39;100374.02;;;1.93;100.00
35577;BME280;21680;52.400;16.920;2023-02-19T07:19:04;100379.25;;;1.97;100.00
35577;BME280;21680;52.400;16.920;2023-02-19T07:21:29;100385.19;;;2.01;100.00
35577;BME280;21680;52.400;16.920;2023-02-19T07:23:55;100386.08;;;2.01;100.00
35577;BME280;21680;52.400;16.920;2023-02-19T07:26:21;100382.36;;;2.02;100.00
35577;BME280;21680;52.400;16.920;2023-02-19T07:28:48;100387.65;;;2.02;100.00
35577;BME280;21680;52.400;16.920;2023-02-19T07:31:15;100392.74;;;2.03;100.00
35577;BME280;21680;52.400;16.920;2023-02-19T07:33:42;100390.45;;;2.04;100.00
35577;BME280;21680;52.400;16.920;2023-02-19T07:36:08;100397.81;;;2.07;100.00
35577;BME280;21680;52.400;16.920;2023-02-19T07:38:34;100402.73;;;2.08;100.00
35577;BME280;21680;52.400;16.920;2023-02-19T07:41:01;100395.83;;;2.10;100.00
35577;BME280;21680;52.400;16.920;2023-02-19T07:43:30;100395.98;;;2.12;100.00
35577;BME280;21680;52.400;16.920;2023-02-19T07:45:55;100402.28;;;2.15;100.00
35577;BME280;21680;52.400;16.920;2023-02-19T07:48:21;100405.44;;;2.17;100.00
35577;BME280;21680;52.400;16.920;2023-02-19T07:50:54;100405.05;;;2.19;100.00
35577;BME280;21680;52.400;16.920;2023-02-19T07:53:21;100402.00;;;2.22;100.00
35577;BME280;21680;52.400;16.920;2023-02-19T07:55:46;100407.60;;;2.25;100.00
35577;BME280;21680;52.400;16.920;2023-02-19T07:58:12;100410.90;;;2.30;100.00
35577;BME280;21680;52.400;16.920;2023-02-19T08:00:38;100411.17;;;2.35;100.00
35577;BME280;21680;52.400;16.920;2023-02-19T08:03:03;100411.65;;;2.40;100.00
35577;BME280;21680;52.400;16.920;2023-02-19T08:05:36;100421.46;;;2.44;100.00
35577;BME280;21680;52.400;16.920;2023-02-19T08:08:04;100419.71;;;2.43;100.00
35577;BME280;21680;52.400;16.920;2023-02-19T08:10:30;100420.21;;;2.45;100.00
35577;BME280;21680;52.400;16.920;2023-02-19T08:13:15;100425.79;;;2.50;100.00
35577;BME280;21680;52.400;16.920;2023-02-19T08:18:14;100431.39;;;2.52;100.00
35577;BME280;21680;52.400;16.920;2023-02-19T08:20:40;100438.73;;;2.57;100.00
35577;BME280;21680;52.400;16.920;2023-02-19T08:23:06;100445.69;;;2.61;100.00
35577;BME280;21680;52.400;16.920;2023-02-19T08:25:35;100442.52;;;2.62;100.00
35577;BME280;21680;52.400;16.920;2023-02-19T08:28:00;100446.35;;;2.65;100.00
35577;BME280;21680;52.400;16.920;2023-02-19T08:30:27;100452.27;;;2.71;100.00
35577;BME280;21680;52.400;16.920;2023-02-19T08:32:58;100451.80;;;2.79;100.00
35577;BME280;21680;52.400;16.920;2023-02-19T08:35:24;100455.00;;;2.88;100.00
35577;BME280;21680;52.400;16.920;2023-02-19T08:37:49;100458.64;;;2.93;100.00
35577;BME280;21680;52.400;16.920;2023-02-19T08:40:15;100458.30;;;2.92;100.00
35577;BME280;21680;52.400;16.920;2023-02-19T08:42:40;100454.55;;;2.96;100.00
35577;BME280;21680;52.400;16.920;2023-02-19T08:45:09;100464.17;;;3.00;100.00
35577;BME280;21680;52.400;16.920;2023-02-19T08:47:34;100469.68;;;3.10;100.00
35577;BME280;21680;52.400;16.920;2023-02-19T08:50:01;100477.25;;;3.11;100.00
35577;BME280;21680;52.400;16.920;2023-02-19T08:52:29;100479.88;;;3.12;100.00
35577;BME280;21680;52.400;16.920;2023-02-19T08:55:00;100485.14;;;3.15;100.00
35577;BME280;21680;52.400;16.920;2023-02-19T08:57:25;100489.92;;;3.14;100.00
35577;BME280;21680;52.400;16.920;2023-02-19T08:59:55;100496.25;;;3.15;100.00
35577;BME280;21680;52.400;16.920;2023-02-19T09:02:23;100499.23;;;3.16;100.00
35577;BME280;21680;52.400;16.920;2023-02-19T09:04:51;100494.95;;;3.19;100.00
35577;BME280;21680;52.400;16.920;2023-02-19T09:07:20;100494.03;;;3.22;100.00
35577;BME280;21680;52.400;16.920;2023-02-19T09:09:49;100496.98;;;3.24;100.00
35577;BME280;21680;52.400;16.920;2023-02-19T09:12:15;100506.63;;;3.29;100.00
35577;BME280;21680;52.400;16.920;2023-02-19T09:14:47;100499.70;;;3.32;100.00
35577;BME280;21680;52.400;16.920;2023-02-19T09:17:12;100501.11;;;3.31;100.00
35577;BME280;21680;52.400;16.920;2023-02-19T09:19:40;100505.73;;;3.29;100.00
35577;BME280;21680;52.400;16.920;2023-02-19T09:22:06;100510.64;;;3.32;100.00
35577;BME280;21680;52.400;16.920;2023-02-19T09:24:31;100510.27;;;3.33;100.00
35577;BME280;21680;52.400;16.920;2023-02-19T09:26:57;100514.09;;;3.38;100.00
35577;BME280;21680;52.400;16.920;2023-02-19T09:29:27;100526.04;;;3.41;100.00
35577;BME280;21680;52.400;16.920;2023-02-19T09:31:57;100528.82;;;3.44;100.00
35577;BME280;21680;52.400;16.920;2023-02-19T09:34:24;100536.58;;;3.45;100.00
35577;BME280;21680;52.400;16.920;2023-02-19T09:36:53;100540.42;;;3.47;100.00
35577;BME280;21680;52.400;16.920;2023-02-19T09:39:23;100542.96;;;3.54;100.00
35577;BME280;21680;52.400;16.920;2023-02-19T09:44:29;100556.04;;;3.65;100.00
35577;BME280;21680;52.400;16.920;2023-02-19T09:46:57;100560.77;;;3.67;100.00
35577;BME280;21680;52.400;16.920;2023-02-19T09:49:41;100553.40;;;3.74;100.00
35577;BME280;21680;52.400;16.920;2023-02-19T09:52:18;100564.33;;;3.77;99.96
35577;BME280;21680;52.400;16.920;2023-02-19T09:54:49;100563.55;;;3.69;99.78
35577;BME280;21680;52.400;16.920;2023-02-19T09:57:18;100574.73;;;3.66;99.54
35577;BME280;21680;52.400;16.920;2023-02-19T09:59:50;100569.00;;;3.61;99.13
35577;BME280;21680;52.400;16.920;2023-02-19T10:02:19;100579.06;;;3.61;98.98
35577;BME280;21680;52.400;16.920;2023-02-19T10:04:47;100579.37;;;3.65;98.69
35577;BME280;21680;52.400;16.920;2023-02-19T10:07:14;100584.77;;;3.69;98.65
35577;BME280;21680;52.400;16.920;2023-02-19T10:09:55;100587.20;;;3.72;98.58
35577;BME280;21680;52.400;16.920;2023-02-19T10:12:36;100591.21;;;3.75;98.32
35577;BME280;21680;52.400;16.920;2023-02-19T10:15:10;100590.21;;;3.82;98.17
35577;BME280;21680;52.400;16.920;2023-02-19T10:17:43;100589.36;;;3.90;98.39
35577;BME280;21680;52.400;16.920;2023-02-19T10:20:18;100592.19;;;4.01;98.40
35577;BME280;21680;52.400;16.920;2023-02-19T10:22:44;100599.36;;;4.05;98.18
35577;BME280;21680;52.400;16.920;2023-02-19T10:25:14;100599.17;;;4.06;97.70
35577;BME280;21680;52.400;16.920;2023-02-19T10:27:41;100607.80;;;4.07;97.58
35577;BME280;21680;52.400;16.920;2023-02-19T10:30:17;100615.81;;;4.04;97.25
35577;BME280;21680;52.400;16.920;2023-02-19T10:32:58;100615.94;;;4.08;97.32
35577;BME280;21680;52.400;16.920;2023-02-19T10:35:25;100625.41;;;4.12;97.28
35577;BME280;21680;52.400;16.920;2023-02-19T10:37:50;100627.84;;;4.14;96.97
35577;BME280;21680;52.400;16.920;2023-02-19T10:40:21;100629.61;;;4.14;96.48
35577;BME280;21680;52.400;16.920;2023-02-19T10:42:49;100623.66;;;4.11;95.82
35577;BME280;21680;52.400;16.920;2023-02-19T10:45:22;100630.94;;;4.09;95.75
35577;BME280;21680;52.400;16.920;2023-02-19T10:47:49;100634.63;;;4.10;95.19
35577;BME280;21680;52.400;16.920;2023-02-19T10:50:24;100634.36;;;4.16;94.92
35577;BME280;21680;52.400;16.920;2023-02-19T10:52:55;100632.33;;;4.21;94.34
35577;BME280;21680;52.400;16.920;2023-02-19T10:55:33;100625.20;;;4.24;93.79
35577;BME280;21680;52.400;16.920;2023-02-19T10:58:34;100626.91;;;4.27;93.65
35577;BME280;21680;52.400;16.920;2023-02-19T11:01:21;100626.46;;;4.32;93.35
35577;BME280;21680;52.400;16.920;2023-02-19T11:03:52;100636.27;;;4.37;92.92
35577;BME280;21680;52.400;16.920;2023-02-19T11:06:36;100634.95;;;4.52;92.20
35577;BME280;21680;52.400;16.920;2023-02-19T11:09:02;100634.89;;;4.64;92.07
35577;BME280;21680;52.400;16.920;2023-02-19T11:11:36;100630.52;;;4.79;92.59
35577;BME280;21680;52.400;16.920;2023-02-19T11:14:11;100631.45;;;4.86;92.11
35577;BME280;21680;52.400;16.920;2023-02-19T11:16:50;100634.75;;;4.80;91.65
35577;BME280;21680;52.400;16.920;2023-02-19T11:19:37;100634.86;;;4.66;88.88
35577;BME280;21680;52.400;16.920;2023-02-19T11:22:31;100644.48;;;4.52;87.12
35577;BME280;21680;52.400;16.920;2023-02-19T11:25:27;100646.11;;;4.41;87.00
35577;BME280;21680;52.400;16.920;2023-02-19T11:28:23;100657.00;;;4.36;85.81
35577;BME280;21680;52.400;16.920;2023-02-19T11:30:50;100659.17;;;4.33;86.39
35577;BME280;21680;52.400;16.920;2023-02-19T11:36:03;100665.41;;;4.50;86.23
35577;BME280;21680;52.400;16.920;2023-02-19T11:38:34;100666.59;;;4.72;86.66
35577;BME280;21680;52.400;16.920;2023-02-19T11:46:40;100667.59;;;5.18;86.72
35577;BME280;21680;52.400;16.920;2023-02-19T11:49:24;100674.30;;;5.27;86.10
35577;BME280;21680;52.400;16.920;2023-02-19T11:54:45;100674.77;;;5.14;85.58
35577;BME280;21680;52.400;16.920;2023-02-19T11:57:23;100671.83;;;5.03;85.42
35577;BME280;21680;52.400;16.920;2023-02-19T12:00:25;100670.70;;;5.06;85.43
35577;BME280;21680;52.400;16.920;2023-02-19T12:06:00;100676.99;;;5.26;84.94
35577;BME280;21680;52.400;16.920;2023-02-19T12:08:50;100673.83;;;5.32;84.79
35577;BME280;21680;52.400;16.920;2023-02-19T12:14:24;100682.32;;;5.58;84.54
35577;BME280;21680;52.400;16.920;2023-02-19T12:17:16;100678.48;;;5.63;83.49
35577;BME280;21680;52.400;16.920;2023-02-19T12:20:00;100678.41;;;5.73;82.85
35577;BME280;21680;52.400;16.920;2023-02-19T12:23:26;100682.95;;;5.84;82.68
35577;BME280;21680;52.400;16.920;2023-02-19T12:31:09;100689.20;;;6.13;79.78
35577;BME280;21680;52.400;16.920;2023-02-19T12:44:23;100701.45;;;6.48;75.52
35577;BME280;21680;52.400;16.920;2023-02-19T12:46:57;100710.27;;;6.65;76.29
35577;BME280;21680;52.400;16.920;2023-02-19T12:51:57;100730.52;;;6.57;73.22
35577;BME280;21680;52.400;16.920;2023-02-19T12:54:34;100724.70;;;6.26;72.36
35577;BME280;21680;52.400;16.920;2023-02-19T12:57:12;100726.84;;;6.04;73.08
35577;BME280;21680;52.400;16.920;2023-02-19T13:02:18;100730.70;;;6.22;74.25
35577;BME280;21680;52.400;16.920;2023-02-19T13:07:27;100732.12;;;6.14;72.77
35577;BME280;21680;52.400;16.920;2023-02-19T13:10:02;100736.23;;;5.89;71.26
35577;BME280;21680;52.400;16.920;2023-02-19T13:12:33;100741.20;;;5.97;71.63
35577;BME280;21680;52.400;16.920;2023-02-19T13:15:20;100747.05;;;5.89;72.28
35577;BME280;21680;52.400;16.920;2023-02-19T13:17:51;100743.27;;;5.75;71.59
35577;BME280;21680;52.400;16.920;2023-02-19T13:20:31;100748.39;;;6.01;70.73
35577;BME280;21680;52.400;16.920;2023-02-19T13:23:22;100743.59;;;6.09;67.62
35577;BME280;21680;52.400;16.920;2023-02-19T13:26:29;100747.73;;;5.82;68.05
35577;BME280;21680;52.400;16.920;2023-02-19T13:32:09;100742.14;;;5.70;65.92
35577;BME280;21680;52.400;16.920;2023-02-19T13:37:43;100739.55;;;5.67;66.53
35577;BME280;21680;52.400;16.920;2023-02-19T13:42:53;100746.02;;;5.28;66.28
35577;BME280;21680;52.400;16.920;2023-02-19T13:45:37;100739.04;;;5.23;67.52
35577;BME280;21680;52.400;16.920;2023-02-19T13:50:48;100755.02;;;5.14;68.02
35577;BME280;21680;52.400;16.920;2023-02-19T13:59:36;100762.73;;;5.00;66.39
35577;BME280;21680;52.400;16.920;2023-02-19T14:04:43;100771.63;;;5.17;66.69
35577;BME280;21680;52.400;16.920;2023-02-19T14:14:45;100785.09;;;5.24;65.74
35577;BME280;21680;52.400;16.920;2023-02-19T14:19:58;100792.80;;;5.46;64.75
35577;BME280;21680;52.400;16.920;2023-02-19T14:30:58;100805.20;;;5.55;63.96
35577;BME280;21680;52.400;16.920;2023-02-19T14:33:34;100803.16;;;5.51;64.05
35577;BME280;21680;52.400;16.920;2023-02-19T14:36:08;100802.78;;;5.52;64.39
35577;BME280;21680;52.400;16.920;2023-02-19T14:38:46;100803.85;;;5.43;61.91
35577;BME280;21680;52.400;16.920;2023-02-19T14:41:14;100816.16;;;5.38;62.47
35577;BME280;21680;52.400;16.920;2023-02-19T14:43:42;100812.63;;;5.38;62.84
35577;BME280;21680;52.400;16.920;2023-02-19T14:46:23;100811.19;;;5.39;62.25
35577;BME280;21680;52.400;16.920;2023-02-19T14:48:50;100815.80;;;5.39;62.17
35577;BME280;21680;52.400;16.920;2023-02-19T14:51:28;100818.21;;;5.34;62.15